This is the latest recevied weather packets stored in our database for station/object K5SVV. If no packets are shown the sender has not sent any weather packets the latest 10 day(s).
| Time | Temp. | Humidity | Pressure | Rain* | Wind** | Luminosity | Snow |
|---|---|---|---|---|---|---|---|
| 1788040823 | 38.89° C | 34% | 1013.6 hPa | 0 mm | - | 459 W/m² | - |
| 1788040516 | 38.89° C | 34% | 1013.4 hPa | 0 mm | - | 510 W/m² | - |
| 1788040213 | 38.89° C | 35% | 1013.7 hPa | 0 mm | - | 531 W/m² | - |
| 1788039917 | 38.89° C | 34% | 1013.6 hPa | 0 mm | - | 557 W/m² | - |
| 1788039606 | 38.33° C | 34% | 1013.7 hPa | 0 mm | - | 551 W/m² | - |
| 1788039301 | 38.33° C | 33% | 1013.9 hPa | 0 mm | - | 570 W/m² | - |
| 1788038996 | 37.78° C | 35% | 1013.9 hPa | 0 mm | - | 299 W/m² | - |
| 1788038692 | 38.33° C | 34% | 1013.9 hPa | 0 mm | - | 576 W/m² | - |
| 1788038391 | 38.33° C | 33% | 1013.8 hPa | 0 mm | - | 614 W/m² | - |
| 1788038086 | 38.89° C | 33% | 1014 hPa | 0 mm | - | 602 W/m² | - |
| 1788037781 | 38.89° C | 32% | 1014.1 hPa | 0 mm | - | 655 W/m² | - |
| 1788037480 | 38.89° C | 32% | 1014.2 hPa | 0 mm | - | 658 W/m² | - |
| 1788037176 | 39.44° C | 33% | 1014 hPa | 0 mm | - | 666 W/m² | - |
| 1788036875 | 38.89° C | 33% | 1014.6 hPa | 0 mm | - | 644 W/m² | - |
| 1788036572 | 38.89° C | 33% | 1014.2 hPa | 0 mm | - | 658 W/m² | - |
| 1788036267 | 39.44° C | 31% | 1014.6 hPa | 0 mm | - | 686 W/m² | - |
| 1788035961 | 38.33° C | 33% | 1014.6 hPa | 0 mm | - | 687 W/m² | - |
| 1788035661 | 37.78° C | 32% | 1014.8 hPa | 0 mm | - | 672 W/m² | - |
| 1788035357 | 37.78° C | 34% | 1014.5 hPa | 0 mm | - | 455 W/m² | - |
| 1788035052 | 37.22° C | 33% | 1014.8 hPa | 0 mm | - | 677 W/m² | - |
| 1788034748 | 37.22° C | 36% | 1014.8 hPa | 0 mm | - | 307 W/m² | - |
| 1788034444 | 37.78° C | 34% | 1015 hPa | 0 mm | - | 709 W/m² | - |
| 1788034134 | 38.33° C | 34% | 1015 hPa | 0 mm | - | 690 W/m² | - |
| 1788033832 | 38.33° C | 34% | 1015 hPa | 0 mm | - | 701 W/m² | - |
| 1788033527 | 37.78° C | 35% | 1015.2 hPa | 0 mm | - | 716 W/m² | - |
* Rain latest hour (hover to see other rain measurements)
** Current wind speed in m/s (hover to see current wind gust speed)